Time;durP1;ratioP1;P1;durP2;ratioP2;P2;SDS_P1;SDS_P2;PMS_P1;PMS_P2;Temp;Humidity;BMP_temperature;BMP_pressure;BME280_temperature;BME280_humidity;BME280_pressure;Samples;Min_cycle;Max_cycle;Signal;HPM_P1;HPM_P2
2021/03/20 00:01:22;;;;;;;0.68;0.68;;;;;;;;;;10204842;28;20440;-60
2021/03/20 00:06:20;;;;;;;1.77;1.13;;;;;;;;;;10217784;28;20148;-63
2021/03/20 00:11:19;;;;;;;0.93;0.93;;;;;;;;;;10212129;28;20678;-63
2021/03/20 00:16:17;;;;;;;1.23;0.70;;;;;;;;;;10193697;28;20038;-60
2021/03/20 00:21:14;;;;;;;0.73;0.40;;;;;;;;;;10193029;28;20045;-60
2021/03/20 00:26:12;;;;;;;0.73;0.53;;;;;;;;;;10202944;28;20092;-60
2021/03/20 00:31:11;;;;;;;6.17;1.90;;;;;;;;;;10195248;28;20544;-66
2021/03/20 00:36:09;;;;;;;5.85;1.10;;;;;;;;;;10186634;28;20117;-63
2021/03/20 00:41:07;;;;;;;5.13;1.15;;;;;;;;;;10198896;28;20038;-62
2021/03/20 00:46:06;;;;;;;0.88;0.88;;;;;;;;;;10211312;28;20508;-60
2021/03/20 00:51:05;;;;;;;0.80;0.45;;;;;;;;;;10187438;28;20501;-62
2021/03/20 00:56:02;;;;;;;;;;;;;;;;;;10205572;28;20073;-59
2021/03/20 01:01:04;;;;;;;0.85;0.85;;;;;;;;;;10191350;28;19948;-59
2021/03/20 01:06:01;;;;;;;1.55;1.17;;;;;;;;;;10209934;28;20282;-58
2021/03/20 01:10:59;;;;;;;2.07;1.07;;;;;;;;;;10213922;28;20031;-62
2021/03/20 01:15:56;;;;;;;0.60;0.60;;;;;;;;;;10212358;28;20034;-59
2021/03/20 01:20:54;;;;;;;1.27;1.17;;;;;;;;;;10222876;28;20058;-61
2021/03/20 01:25:51;;;;;;;0.60;0.60;;;;;;;;;;10222575;28;20034;-58
2021/03/20 01:30:49;;;;;;;0.90;0.83;;;;;;;;;;10217764;28;20037;-61
2021/03/20 01:35:46;;;;;;;1.60;0.77;;;;;;;;;;10203536;28;20032;-62
2021/03/20 01:40:55;;;;;;;0.82;0.70;;;;;;;;;;10225997;28;20033;-59
2021/03/20 01:45:53;;;;;;;1.48;1.35;;;;;;;;;;10220412;28;20037;-61
2021/03/20 01:50:56;;;;;;;1.25;1.15;;;;;;;;;;10223362;28;20034;-61
2021/03/20 01:55:54;;;;;;;0.68;0.68;;;;;;;;;;10211864;28;20412;-62
2021/03/20 02:00:57;;;;;;;0.70;0.65;;;;;;;;;;10221967;28;20040;-59
2021/03/20 02:05:54;;;;;;;0.45;0.45;;;;;;;;;;10227678;28;20042;-61
2021/03/20 02:10:54;;;;;;;0.90;0.67;;;;;;;;;;10217589;28;20045;-59
2021/03/20 02:15:56;;;;;;;1.98;0.77;;;;;;;;;;10217571;28;20045;-60
2021/03/20 02:20:57;;;;;;;2.35;1.02;;;;;;;;;;10215685;28;20374;-61
2021/03/20 02:26:02;;;;;;;2.20;1.23;;;;;;;;;;10212645;28;20405;-60
2021/03/20 02:31:00;;;;;;;0.70;0.70;;;;;;;;;;10212407;28;20035;-60
2021/03/20 02:36:05;;;;;;;0.73;0.73;;;;;;;;;;10226553;28;20046;-58
2021/03/20 02:41:02;;;;;;;0.32;0.32;;;;;;;;;;10207202;28;20439;-61
2021/03/20 02:46:03;;;;;;;0.40;0.40;;;;;;;;;;10216041;28;20077;-61
2021/03/20 02:51:04;;;;;;;0.68;0.63;;;;;;;;;;10216342;28;20057;-61
2021/03/20 02:56:03;;;;;;;0.47;0.47;;;;;;;;;;10218632;28;20134;-58
2021/03/20 03:01:05;;;;;;;0.65;0.65;;;;;;;;;;10221046;28;20035;-59
2021/03/20 03:06:12;;;;;;;1.73;0.93;;;;;;;;;;10190287;28;20039;-57
2021/03/20 03:11:13;;;;;;;1.65;1.08;;;;;;;;;;10212855;28;20038;-62
2021/03/20 03:16:13;;;;;;;0.75;0.75;;;;;;;;;;10224887;28;20038;-60
2021/03/20 03:21:12;;;;;;;8.23;1.25;;;;;;;;;;10217551;28;20536;-59
2021/03/20 03:26:16;;;;;;;4.90;1.23;;;;;;;;;;10203888;28;20742;-62
2021/03/20 03:31:17;;;;;;;4.20;0.63;;;;;;;;;;10219863;28;20025;-64
2021/03/20 03:36:17;;;;;;;0.88;0.75;;;;;;;;;;10211590;28;20065;-60
2021/03/20 03:41:17;;;;;;;2.38;1.02;;;;;;;;;;10223527;28;20521;-57
2021/03/20 03:46:15;;;;;;;1.83;1.20;;;;;;;;;;10203861;28;20156;-59
2021/03/20 03:51:13;;;;;;;1.23;0.80;;;;;;;;;;10222425;28;20022;-61
2021/03/20 03:56:23;;;;;;;0.90;0.90;;;;;;;;;;10207830;28;20038;-58
2021/03/20 04:01:40;;;;;;;3.25;0.90;;;;;;;;;;10238078;28;20053;-61
2021/03/20 04:07:11;;;;;;;1.48;0.90;;;;;;;;;;10193495;28;20046;-59
2021/03/20 04:12:19;;;;;;;1.65;1.10;;;;;;;;;;10213063;28;20097;-59
2021/03/20 04:17:35;;;;;;;1.40;1.10;;;;;;;;;;10221932;28;20050;-60
2021/03/20 04:22:39;;;;;;;2.50;1.38;;;;;;;;;;10193736;28;20038;-61
2021/03/20 04:27:42;;;;;;;5.10;1.33;;;;;;;;;;10195606;28;20035;-64
2021/03/20 04:32:47;;;;;;;0.70;0.52;;;;;;;;;;10209919;28;21307;-58
2021/03/20 04:37:47;;;;;;;4.95;0.80;;;;;;;;;;10192313;28;20042;-57
2021/03/20 04:42:45;;;;;;;1.05;0.68;;;;;;;;;;10205402;28;20053;-59
2021/03/20 04:47:43;;;;;;;0.87;0.77;;;;;;;;;;10219009;28;20045;-57
2021/03/20 04:52:42;;;;;;;2.58;1.17;;;;;;;;;;10202347;28;20955;-59
2021/03/20 04:57:45;;;;;;;1.02;0.95;;;;;;;;;;10218744;28;20064;-58
2021/03/20 05:02:48;;;;;;;1.13;0.95;;;;;;;;;;10212232;28;20034;-59
2021/03/20 05:07:46;;;;;;;0.73;0.57;;;;;;;;;;10214272;28;20034;-61
2021/03/20 05:12:45;;;;;;;2.40;1.00;;;;;;;;;;10199417;28;20038;-58
2021/03/20 05:17:42;;;;;;;0.73;0.70;;;;;;;;;;10205616;28;20104;-58
2021/03/20 05:22:39;;;;;;;0.97;0.60;;;;;;;;;;10211416;28;20092;-58
2021/03/20 05:27:37;;;;;;;1.13;0.87;;;;;;;;;;10211893;28;20053;-59
2021/03/20 05:32:35;;;;;;;2.23;0.70;;;;;;;;;;10216771;28;20051;-59
2021/03/20 05:37:39;;;;;;;1.55;0.73;;;;;;;;;;10219743;28;20035;-61
2021/03/20 05:42:46;;;;;;;1.63;1.13;;;;;;;;;;10222294;28;20035;-60
2021/03/20 05:47:46;;;;;;;3.60;1.23;;;;;;;;;;10222703;28;20168;-58
2021/03/20 05:52:43;;;;;;;0.82;0.70;;;;;;;;;;10214795;28;20129;-61
2021/03/20 05:57:41;;;;;;;2.27;1.30;;;;;;;;;;10223035;28;20694;-60
2021/03/20 06:02:47;;;;;;;3.00;1.17;;;;;;;;;;10218156;28;20045;-57
2021/03/20 06:07:45;;;;;;;1.35;0.73;;;;;;;;;;10229849;28;20116;-57
2021/03/20 06:12:45;;;;;;;1.40;0.90;;;;;;;;;;10218286;28;20116;-61
2021/03/20 06:18:15;;;;;;;2.20;0.98;;;;;;;;;;10220111;28;20080;-61
2021/03/20 06:23:16;;;;;;;1.52;0.63;;;;;;;;;;10158956;28;20037;-58
2021/03/20 06:28:14;;;;;;;2.58;0.80;;;;;;;;;;10194371;28;20037;-60
2021/03/20 06:33:18;;;;;;;2.20;0.80;;;;;;;;;;10214919;28;20038;-60
2021/03/20 06:38:20;;;;;;;1.30;1.20;;;;;;;;;;10216180;28;20432;-59
2021/03/20 06:43:19;;;;;;;3.17;0.93;;;;;;;;;;10196635;28;20403;-61
2021/03/20 06:48:22;;;;;;;1.73;0.90;;;;;;;;;;10222679;28;20120;-64
2021/03/20 06:53:29;;;;;;;3.13;1.00;;;;;;;;;;10214738;28;20085;-65
2021/03/20 06:58:30;;;;;;;1.17;1.08;;;;;;;;;;10202988;28;20458;-64
2021/03/20 07:03:30;;;;;;;3.55;1.15;;;;;;;;;;10220579;28;20038;-64
2021/03/20 07:08:37;;;;;;;1.05;0.95;;;;;;;;;;10183492;28;20456;-60
2021/03/20 07:13:44;;;;;;;1.88;1.02;;;;;;;;;;10212164;28;20386;-61
2021/03/20 07:18:44;;;;;;;2.05;0.93;;;;;;;;;;10209524;28;20042;-65
2021/03/20 07:23:50;;;;;;;1.92;1.40;;;;;;;;;;10217530;28;20065;-62
2021/03/20 07:28:52;;;;;;;1.27;1.08;;;;;;;;;;10207309;28;20547;-63
2021/03/20 07:33:53;;;;;;;1.48;1.02;;;;;;;;;;10213488;28;20031;-59
2021/03/20 07:39:03;;;;;;;1.50;1.13;;;;;;;;;;10202676;28;20062;-62
2021/03/20 07:44:00;;;;;;;3.00;1.27;;;;;;;;;;10175132;28;20202;-61
2021/03/20 07:49:17;;;;;;;4.87;1.33;;;;;;;;;;10209175;28;20677;-57
2021/03/20 07:54:25;;;;;;;3.33;1.98;;;;;;;;;;10191495;28;20038;-60
2021/03/20 07:59:22;;;;;;;4.13;1.00;;;;;;;;;;10195133;28;20132;-64
2021/03/20 08:04:40;;;;;;;2.30;1.33;;;;;;;;;;10193331;28;20039;-64
2021/03/20 08:09:37;;;;;;;4.15;1.48;;;;;;;;;;10198305;28;20034;-65
2021/03/20 08:14:49;;;;;;;3.73;1.80;;;;;;;;;;10217241;28;20038;-61
2021/03/20 08:19:47;;;;;;;3.88;1.48;;;;;;;;;;10207843;28;20174;-61
2021/03/20 08:24:57;;;;;;;2.70;1.45;;;;;;;;;;10210812;28;20041;-62
2021/03/20 08:30:07;;;;;;;4.45;1.45;;;;;;;;;;10182866;28;20040;-61
2021/03/20 08:35:13;;;;;;;1.98;1.60;;;;;;;;;;10178223;28;20068;-61
2021/03/20 08:40:14;;;;;;;1.65;0.90;;;;;;;;;;10203325;28;20046;-61
2021/03/20 08:45:18;;;;;;;1.88;1.40;;;;;;;;;;10201216;28;20271;-60
2021/03/20 08:50:19;;;;;;;3.80;1.70;;;;;;;;;;10203025;28;20117;-62
2021/03/20 08:55:16;;;;;;;2.90;1.88;;;;;;;;;;10212967;28;20096;-62
2021/03/20 09:00:34;;;;;;;2.70;0.83;;;;;;;;;;10217926;28;20042;-60
2021/03/20 09:05:36;;;;;;;2.40;1.30;;;;;;;;;;10209305;28;20045;-58
2021/03/20 09:10:41;;;;;;;2.45;1.63;;;;;;;;;;10212559;28;20042;-61
2021/03/20 09:15:41;;;;;;;1.67;1.33;;;;;;;;;;10220467;28;20046;-59
2021/03/20 09:20:59;;;;;;;3.33;1.60;;;;;;;;;;10199794;28;20034;-62
2021/03/20 09:25:58;;;;;;;1.95;1.48;;;;;;;;;;10204342;28;20053;-65
2021/03/20 09:30:58;;;;;;;2.85;1.58;;;;;;;;;;10205056;28;20442;-60
2021/03/20 09:36:00;;;;;;;2.97;1.20;;;;;;;;;;10211624;28;20470;-64
2021/03/20 09:40:58;;;;;;;2.55;1.48;;;;;;;;;;10212162;28;20062;-59
2021/03/20 09:46:14;;;;;;;3.93;1.80;;;;;;;;;;10208853;28;20125;-62
2021/03/20 09:51:30;;;;;;;2.05;1.58;;;;;;;;;;10221565;28;20547;-62
2021/03/20 09:56:29;;;;;;;3.47;1.73;;;;;;;;;;10210966;28;20543;-63
2021/03/20 10:01:41;;;;;;;5.90;2.03;;;;;;;;;;10226041;28;20081;-62
2021/03/20 10:06:40;;;;;;;3.78;2.00;;;;;;;;;;10231945;28;20041;-62
2021/03/20 10:11:40;;;;;;;3.72;2.38;;;;;;;;;;10212197;28;20104;-64
2021/03/20 10:16:38;;;;;;;6.28;2.40;;;;;;;;;;10197102;28;20435;-63
2021/03/20 10:21:35;;;;;;;3.03;1.70;;;;;;;;;;10197650;28;20040;-62
2021/03/20 10:27:02;;;;;;;3.17;2.10;;;;;;;;;;10195523;28;20038;-62
2021/03/20 10:32:05;;;;;;;2.97;1.30;;;;;;;;;;10211800;28;20108;-62
2021/03/20 10:37:06;;;;;;;3.72;1.42;;;;;;;;;;10199869;28;20404;-65
2021/03/20 10:42:06;;;;;;;2.65;1.98;;;;;;;;;;10178713;28;20032;-64
2021/03/20 10:47:26;;;;;;;2.20;1.67;;;;;;;;;;10208729;28;20125;-63
2021/03/20 10:52:30;;;;;;;2.70;1.20;;;;;;;;;;10211330;28;20038;-65
2021/03/20 10:57:30;;;;;;;1.60;1.42;;;;;;;;;;10228728;28;20093;-60
2021/03/20 11:02:27;;;;;;;5.55;3.40;;;;;;;;;;10226296;28;20111;-62
2021/03/20 11:07:25;;;;;;;4.90;2.00;;;;;;;;;;10196968;28;20030;-61
2021/03/20 11:12:27;;;;;;;2.73;1.97;;;;;;;;;;10216288;28;20397;-61
2021/03/20 11:17:27;;;;;;;2.28;1.40;;;;;;;;;;10207009;28;20106;-64
2021/03/20 11:22:30;;;;;;;1.98;1.63;;;;;;;;;;10193536;28;20547;-61
2021/03/20 11:27:32;;;;;;;2.30;1.70;;;;;;;;;;10210777;28;20065;-60
2021/03/20 11:32:32;;;;;;;1.77;1.58;;;;;;;;;;10216635;28;20076;-60
2021/03/20 11:37:30;;;;;;;4.22;2.47;;;;;;;;;;10214179;28;20042;-65
2021/03/20 11:42:29;;;;;;;2.80;1.80;;;;;;;;;;10215624;28;21093;-63
2021/03/20 11:47:30;;;;;;;1.90;1.40;;;;;;;;;;10206001;28;20054;-62
2021/03/20 11:52:29;;;;;;;2.92;2.00;;;;;;;;;;10212829;28;20518;-62
2021/03/20 11:57:27;;;;;;;1.50;1.13;;;;;;;;;;10216845;28;20038;-60
2021/03/20 12:02:24;;;;;;;2.90;1.93;;;;;;;;;;10212992;28;20041;-61
2021/03/20 12:07:23;;;;;;;1.60;1.00;;;;;;;;;;10210862;28;20046;-60
2021/03/20 12:12:40;;;;;;;3.05;1.27;;;;;;;;;;10186807;28;20038;-62
2021/03/20 12:17:44;;;;;;;1.63;1.40;;;;;;;;;;10204711;28;20030;-61
2021/03/20 12:22:49;;;;;;;3.20;1.40;;;;;;;;;;10226162;28;20180;-64
2021/03/20 12:27:48;;;;;;;1.77;1.15;;;;;;;;;;10216470;28;20034;-62
2021/03/20 12:32:50;;;;;;;3.08;1.45;;;;;;;;;;10212883;28;20132;-61
2021/03/20 12:38:20;;;;;;;1.55;1.38;;;;;;;;;;10203005;28;20033;-58
2021/03/20 12:43:36;;;;;;;4.43;2.30;;;;;;;;;;10185141;28;20034;-60
2021/03/20 12:48:40;;;;;;;1.33;1.23;;;;;;;;;;10206376;28;20666;-60
2021/03/20 12:53:37;;;;;;;2.72;1.65;;;;;;;;;;10218130;28;20133;-58
2021/03/20 12:58:36;;;;;;;2.73;1.33;;;;;;;;;;10211260;28;20044;-64
2021/03/20 13:03:34;;;;;;;1.70;1.58;;;;;;;;;;10224293;28;20046;-59
2021/03/20 13:08:37;;;;;;;3.63;1.42;;;;;;;;;;10212887;28;20042;-60
2021/03/20 13:13:35;;;;;;;6.80;2.33;;;;;;;;;;10214857;28;20104;-62
2021/03/20 13:18:32;;;;;;;7.83;2.93;;;;;;;;;;10222079;28;20084;-63
2021/03/20 13:23:29;;;;;;;6.97;3.53;;;;;;;;;;10215722;28;20037;-61
2021/03/20 13:28:27;;;;;;;17.73;6.07;;;;;;;;;;10202605;28;20422;-66
2021/03/20 13:33:24;;;;;;;28.97;7.40;;;;;;;;;;10217638;28;20042;-64
2021/03/20 13:38:22;;;;;;;13.33;5.07;;;;;;;;;;10215923;28;20104;-62
2021/03/20 13:43:20;;;;;;;17.75;5.38;;;;;;;;;;10230074;28;20026;-62
2021/03/20 13:48:18;;;;;;;13.33;3.97;;;;;;;;;;10226645;28;20065;-62
2021/03/20 13:53:17;;;;;;;9.33;2.80;;;;;;;;;;10224095;28;20093;-63
2021/03/20 13:58:15;;;;;;;12.75;3.53;;;;;;;;;;10193578;28;20047;-62
2021/03/20 14:03:12;;;;;;;8.73;3.07;;;;;;;;;;10230203;28;20034;-64
2021/03/20 14:08:10;;;;;;;6.30;1.80;;;;;;;;;;10205692;28;20041;-62
2021/03/20 14:13:09;;;;;;;7.80;2.22;;;;;;;;;;10195022;28;20043;-61
2021/03/20 14:18:08;;;;;;;3.13;1.05;;;;;;;;;;10195827;28;20034;-65
2021/03/20 14:23:06;;;;;;;2.85;1.58;;;;;;;;;;10213995;28;20512;-63
2021/03/20 14:28:04;;;;;;;5.32;1.60;;;;;;;;;;10200121;28;20041;-61
2021/03/20 14:33:02;;;;;;;3.40;0.98;;;;;;;;;;10215434;28;20049;-62
2021/03/20 14:38:00;;;;;;;7.57;1.85;;;;;;;;;;10196456;28;20045;-62
2021/03/20 14:42:57;;;;;;;6.63;2.50;;;;;;;;;;10211659;28;20636;-62
2021/03/20 14:47:54;;;;;;;4.77;1.83;;;;;;;;;;10213551;28;20034;-64
2021/03/20 14:52:54;;;;;;;4.03;1.50;;;;;;;;;;10204229;28;20049;-60
2021/03/20 14:57:52;;;;;;;3.58;1.08;;;;;;;;;;10211056;28;20610;-61
2021/03/20 15:02:49;;;;;;;1.73;1.00;;;;;;;;;;10196978;28;20052;-60
2021/03/20 15:07:47;;;;;;;6.37;5.80;;;;;;;;;;10211784;28;20037;-62
2021/03/20 15:12:45;;;;;;;1.27;1.10;;;;;;;;;;10217056;28;20042;-63
2021/03/20 15:17:42;;;;;;;3.73;1.40;;;;;;;;;;10221718;28;20290;-64
2021/03/20 15:22:39;;;;;;;3.00;1.57;;;;;;;;;;10213797;28;20039;-62
2021/03/20 15:27:37;;;;;;;1.77;1.50;;;;;;;;;;10222602;28;20366;-63
2021/03/20 15:32:35;;;;;;;1.00;0.90;;;;;;;;;;10207636;28;20050;-63
2021/03/20 15:37:32;;;;;;;2.13;1.30;;;;;;;;;;10193893;28;20038;-64
2021/03/20 15:42:29;;;;;;;1.50;1.40;;;;;;;;;;10185815;28;20029;-64
2021/03/20 15:47:30;;;;;;;5.77;1.70;;;;;;;;;;10169355;28;20041;-62
2021/03/20 15:52:28;;;;;;;1.77;1.30;;;;;;;;;;10210685;28;21177;-63
2021/03/20 15:57:26;;;;;;;;;;;;;;;;;;10227233;28;20132;-64
2021/03/20 16:02:24;;;;;;;2.55;1.52;;;;;;;;;;10205492;28;20585;-63
2021/03/20 16:07:22;;;;;;;7.45;2.15;;;;;;;;;;10203921;28;20038;-63
2021/03/20 16:12:20;;;;;;;3.70;2.10;;;;;;;;;;10229082;28;20455;-65
2021/03/20 16:17:17;;;;;;;7.83;2.77;;;;;;;;;;10213062;28;20038;-63
2021/03/20 16:22:15;;;;;;;2.67;1.47;;;;;;;;;;10219030;28;20584;-62
2021/03/20 16:27:13;;;;;;;28.30;8.73;;;;;;;;;;10216900;28;20118;-61
2021/03/20 16:32:11;;;;;;;4.38;2.97;;;;;;;;;;10222603;28;20049;-62
2021/03/20 16:37:08;;;;;;;8.30;3.83;;;;;;;;;;10228309;28;20481;-61
2021/03/20 16:42:06;;;;;;;3.50;2.33;;;;;;;;;;10232250;28;20109;-64
2021/03/20 16:47:04;;;;;;;3.47;1.70;;;;;;;;;;10241473;28;20141;-63
2021/03/20 16:52:01;;;;;;;1.70;1.60;;;;;;;;;;10241974;28;20281;-62
2021/03/20 16:56:59;;;;;;;1.30;1.20;;;;;;;;;;10243879;28;20030;-61
2021/03/20 17:01:56;;;;;;;2.97;1.63;;;;;;;;;;10235147;28;20038;-61
2021/03/20 17:06:53;;;;;;;4.53;1.50;;;;;;;;;;10220110;28;20034;-62
2021/03/20 17:11:51;;;;;;;3.03;0.80;;;;;;;;;;10222429;28;20038;-63
2021/03/20 17:16:49;;;;;;;5.03;1.13;;;;;;;;;;10228969;28;20093;-61
2021/03/20 17:21:46;;;;;;;3.07;1.17;;;;;;;;;;10222962;28;20049;-58
2021/03/20 17:26:44;;;;;;;2.70;1.30;;;;;;;;;;10227901;28;20061;-60
2021/03/20 17:31:43;;;;;;;4.40;1.13;;;;;;;;;;10212590;28;20034;-61
2021/03/20 17:36:40;;;;;;;3.58;1.33;;;;;;;;;;10223312;28;20046;-59
2021/03/20 17:41:38;;;;;;;4.13;1.03;;;;;;;;;;10198314;28;20061;-61
2021/03/20 17:46:35;;;;;;;1.20;0.70;;;;;;;;;;10222063;28;20034;-60
2021/03/20 17:51:33;;;;;;;2.87;0.60;;;;;;;;;;10205543;28;20113;-62
2021/03/20 17:56:30;;;;;;;3.13;0.77;;;;;;;;;;10195173;28;20030;-60
2021/03/20 18:01:27;;;;;;;3.80;1.23;;;;;;;;;;10200950;28;20034;-65
2021/03/20 18:06:26;;;;;;;2.47;0.43;;;;;;;;;;10190701;28;20034;-62
2021/03/20 18:11:24;;;;;;;0.82;0.57;;;;;;;;;;10205160;28;20495;-62
2021/03/20 18:16:22;;;;;;;4.33;1.03;;;;;;;;;;10207231;28;20030;-65
2021/03/20 18:21:20;;;;;;;;;;;;;;;;;;10208282;28;20073;-65
2021/03/20 18:26:19;;;;;;;2.10;0.80;;;;;;;;;;10218825;28;19953;-61
2021/03/20 18:31:19;;;;;;;2.33;0.65;;;;;;;;;;10182591;28;20497;-60
2021/03/20 18:36:16;;;;;;;1.65;0.57;;;;;;;;;;10202269;28;20066;-63
2021/03/20 18:41:15;;;;;;;0.20;0.20;;;;;;;;;;10219569;28;20034;-59
2021/03/20 18:46:14;;;;;;;1.13;0.85;;;;;;;;;;10190763;28;20076;-61
2021/03/20 18:51:12;;;;;;;0.55;0.55;;;;;;;;;;10215276;28;20575;-62
2021/03/20 18:56:10;;;;;;;2.20;0.85;;;;;;;;;;10201028;28;20444;-60
2021/03/20 19:01:08;;;;;;;3.33;0.57;;;;;;;;;;10202847;28;20112;-61
2021/03/20 19:06:05;;;;;;;2.90;0.70;;;;;;;;;;10217978;28;20037;-62
2021/03/20 19:11:04;;;;;;;2.90;0.63;;;;;;;;;;10209368;28;20050;-59
2021/03/20 19:16:02;;;;;;;0.50;0.50;;;;;;;;;;10199607;28;20496;-62
2021/03/20 19:21:00;;;;;;;2.03;0.53;;;;;;;;;;10197444;28;20388;-61
2021/03/20 19:25:58;;;;;;;4.07;0.50;;;;;;;;;;10204104;28;20096;-62
2021/03/20 19:30:57;;;;;;;3.22;0.40;;;;;;;;;;10201419;28;20026;-61
2021/03/20 19:35:54;;;;;;;2.53;0.60;;;;;;;;;;10215228;28;20041;-62
2021/03/20 19:40:53;;;;;;;1.10;0.50;;;;;;;;;;10215235;28;20528;-65
2021/03/20 19:45:50;;;;;;;;;;;;;;;;;;10199271;28;20041;-62
2021/03/20 19:50:54;;;;;;;2.30;0.52;;;;;;;;;;10201737;28;20399;-63
2021/03/20 19:55:53;;;;;;;1.88;0.40;;;;;;;;;;10192570;28;20050;-65
2021/03/20 20:00:52;;;;;;;;;;;;;;;;;;10204094;28;20035;-64
2021/03/20 20:05:50;;;;;;;1.30;0.40;;;;;;;;;;10212552;28;19956;-63
2021/03/20 20:10:48;;;;;;;0.80;0.30;;;;;;;;;;10208052;28;20058;-64
2021/03/20 20:15:46;;;;;;;3.17;1.03;;;;;;;;;;10202042;28;20091;-64
2021/03/20 20:20:45;;;;;;;4.00;1.23;;;;;;;;;;10195945;28;20397;-65
2021/03/20 20:25:43;;;;;;;4.05;0.80;;;;;;;;;;10183106;28;20042;-63
2021/03/20 20:30:41;;;;;;;3.67;0.80;;;;;;;;;;10173825;28;20653;-63
2021/03/20 20:35:38;;;;;;;1.23;0.80;;;;;;;;;;10180635;28;20043;-63
2021/03/20 20:40:36;;;;;;;1.00;0.60;;;;;;;;;;10204567;28;20488;-61
2021/03/20 20:45:33;;;;;;;2.63;1.00;;;;;;;;;;10210512;28;20105;-64
2021/03/20 20:50:31;;;;;;;4.80;1.23;;;;;;;;;;10205446;28;20539;-63
2021/03/20 20:55:29;;;;;;;2.80;1.17;;;;;;;;;;10171535;28;20124;-65
2021/03/20 21:00:30;;;;;;;1.42;0.93;;;;;;;;;;10210164;28;20125;-65
2021/03/20 21:05:28;;;;;;;2.88;0.80;;;;;;;;;;10192975;28;20035;-64
2021/03/20 21:10:26;;;;;;;3.10;0.93;;;;;;;;;;10201299;28;20053;-65
2021/03/20 21:15:24;;;;;;;;;;;;;;;;;;10223800;23;20035;-63
2021/03/20 21:20:23;;;;;;;1.95;0.80;;;;;;;;;;10219055;28;19932;-64
2021/03/20 21:25:21;;;;;;;2.83;0.63;;;;;;;;;;10243847;28;20542;-64
2021/03/20 21:30:19;;;;;;;2.88;0.65;;;;;;;;;;10203624;28;20101;-63
2021/03/20 21:35:16;;;;;;;0.83;0.50;;;;;;;;;;10217004;28;20034;-63
2021/03/20 21:40:16;;;;;;;6.67;0.77;;;;;;;;;;10190000;28;20038;-63
2021/03/20 21:45:14;;;;;;;2.25;0.60;;;;;;;;;;10197952;28;20374;-64
2021/03/20 21:50:11;;;;;;;3.30;0.90;;;;;;;;;;10215223;28;20038;-64
2021/03/20 21:55:09;;;;;;;2.67;0.50;;;;;;;;;;10221309;28;20030;-64
2021/03/20 22:00:07;;;;;;;1.70;0.40;;;;;;;;;;10218871;28;20266;-64
2021/03/20 22:05:06;;;;;;;5.35;0.75;;;;;;;;;;10216881;28;20031;-64
2021/03/20 22:10:04;;;;;;;1.30;0.30;;;;;;;;;;10205439;28;20164;-64
2021/03/20 22:15:02;;;;;;;0.70;0.50;;;;;;;;;;10221501;28;20034;-64
2021/03/20 22:19:59;;;;;;;0.30;0.30;;;;;;;;;;10217079;28;20271;-63
2021/03/20 22:24:57;;;;;;;2.57;0.37;;;;;;;;;;10209431;28;20030;-62
2021/03/20 22:29:54;;;;;;;1.17;0.57;;;;;;;;;;10221213;28;20087;-63
2021/03/20 22:34:51;;;;;;;3.47;0.43;;;;;;;;;;10208472;28;20107;-64
2021/03/20 22:39:49;;;;;;;1.50;0.30;;;;;;;;;;10216799;28;20260;-63
2021/03/20 22:44:46;;;;;;;0.43;0.30;;;;;;;;;;10204145;28;20084;-63
2021/03/20 22:49:44;;;;;;;0.67;0.50;;;;;;;;;;10210878;28;20045;-66
2021/03/20 22:54:41;;;;;;;0.30;0.30;;;;;;;;;;10225758;28;20038;-65
2021/03/20 22:59:38;;;;;;;1.13;0.30;;;;;;;;;;10200944;28;20042;-65
2021/03/20 23:04:37;;;;;;;3.40;0.77;;;;;;;;;;10202778;28;20045;-64
2021/03/20 23:09:34;;;;;;;3.78;0.80;;;;;;;;;;10185418;28;20375;-64
2021/03/20 23:14:31;;;;;;;9.17;1.03;;;;;;;;;;10181235;28;20295;-64
2021/03/20 23:19:30;;;;;;;1.80;0.30;;;;;;;;;;10204308;28;20060;-64
2021/03/20 23:24:27;;;;;;;0.98;0.73;;;;;;;;;;10164012;28;20034;-62
2021/03/20 23:29:31;;;;;;;2.47;0.50;;;;;;;;;;10227546;28;20042;-63
2021/03/20 23:34:28;;;;;;;0.70;0.47;;;;;;;;;;10212973;28;20085;-63
2021/03/20 23:39:26;;;;;;;3.97;0.97;;;;;;;;;;10212951;28;20462;-63
2021/03/20 23:44:23;;;;;;;0.50;0.50;;;;;;;;;;10222435;28;20035;-64
2021/03/20 23:49:21;;;;;;;0.70;0.70;;;;;;;;;;10223496;28;20447;-63
2021/03/20 23:54:18;;;;;;;4.60;0.80;;;;;;;;;;10218069;28;20503;-63
2021/03/20 23:59:15;;;;;;;4.87;1.13;;;;;;;;;;10203192;28;20457;-61
